BZRK1: S Cottonwood River nr Bazarr KS

                                SHEF ID:       BZRK1     SF COTTONWOOD R NR BAZAAR, KS
STATION TYPE:

PRECIP PRECIP(A) STAGE RIV-FLOW BAT-LOAD
in in ft cfs volt
Ccp-Rev Ccp-Rev Ccp-Rev Ccp-Rev Ccp-Rev
(America/Chicago)
09/15 00:00 0.00 ---- 8.10 141 12.12
09/15 01:00 0.00 ---- 8.11 142 12.11
09/15 02:00 0.01 ---- 8.13 144 12.09
09/15 03:00 0.00 ---- 8.15 146 12.10
09/15 04:00 0.00 ---- 8.17 148 12.10
09/15 05:00 0.00 ---- 8.17 148 12.08
09/15 06:00 0.00 ---- 8.19 151 12.06
09/15 07:00 0.00 ---- 8.29 161 12.05
09/15 08:00 0.00 ---- 8.46 180 12.09
09/15 09:00 0.00 ---- 8.60 197 12.42
09/15 10:00 0.00 ---- 8.65 203 12.75
09/15 11:00 0.00 ---- 8.66 204 13.40
09/15 12:00 0.00 ---- 8.67 205 13.32
09/15 13:00 0.00 ---- 8.68 206 13.30
09/15 14:00 0.00 ---- 8.70 209 13.19
09/15 15:00 0.00 ---- 8.72 211 13.16
09/15 16:00 0.00 ---- 8.71 210 13.13
09/15 17:00 0.00 ---- 8.69 208 13.13
09/15 18:00 0.00 ---- 8.67 205 13.16
09/15 19:00 0.00 ---- 8.64 202 13.24
09/15 20:00 0.00 ---- 8.61 198 12.53
09/15 21:00 0.00 ---- 8.59 196 12.18
09/15 22:00 0.00 ---- 8.57 193 12.18
09/15 23:00 0.00 ---- 8.54 190 12.17
Data processed at Tue 16Sep2025 04:44 GMT

Parsing this webpage?

Checkout our new Data API! CWMSDataAPI (CDA)

Timeseries IDs (TSIDs)

TSIDs used from left to right in the data table
BAZA.Precip-Inc.Total.1Hour.1Hour.Ccp-Rev
BAZA.Precip-Inc Alt.Total.1Hour.1Hour.Ccp-Rev
BAZA.Stage.Inst.1Hour.0.Ccp-Rev
BAZA.Flow.Inst.1Hour.0.Ccp-Rev
BAZA.Volt-Battery Load.Inst.1Hour.0.Ccp-Rev

                            

All information presented herein is the property of the government of the United States of America and may be revised or deleted at any time without prior notice. Dissemination of this information without the expressed written consent of the Public Affairs Office, Tulsa District U.S. Army Corps of Engineers is strictly prohibited. These data are gathered electronically and, as presented, have NOT undergone any form of quality control. These data are NOT guaranteed to be valid or correct.